createdAt,value
2023-03-31T00:00:21.905Z,25.78
2023-03-31T00:01:21.998Z,25.76
2023-03-31T00:02:21.974Z,25.78
2023-03-31T00:03:22.308Z,25.75
2023-03-31T00:04:22.014Z,25.75
2023-03-31T00:05:21.967Z,25.74
2023-03-31T00:06:22.000Z,25.76
2023-03-31T00:07:22.022Z,25.74
2023-03-31T00:08:22.064Z,25.75
2023-03-31T00:09:22.166Z,25.70
2023-03-31T00:10:22.078Z,25.67
2023-03-31T00:11:22.226Z,25.68
2023-03-31T00:12:22.105Z,25.66
2023-03-31T00:13:22.123Z,25.63
2023-03-31T00:14:22.140Z,25.63
2023-03-31T00:15:22.139Z,25.60
2023-03-31T00:16:22.231Z,25.66
2023-03-31T00:17:22.177Z,25.65
2023-03-31T00:18:22.204Z,25.59
2023-03-31T00:19:22.211Z,25.63
2023-03-31T00:20:22.245Z,25.62
2023-03-31T00:21:22.267Z,25.59
2023-03-31T00:22:22.299Z,25.60
2023-03-31T00:23:22.294Z,25.59
2023-03-31T00:24:22.336Z,25.59
2023-03-31T00:25:22.336Z,25.57
2023-03-31T00:26:22.350Z,25.54
2023-03-31T00:27:22.362Z,25.57
2023-03-31T00:28:22.352Z,25.58
2023-03-31T00:29:22.398Z,25.52
2023-03-31T00:30:22.394Z,25.54
2023-03-31T00:31:22.445Z,25.53
2023-03-31T00:32:22.424Z,25.50
2023-03-31T00:33:22.438Z,25.45
2023-03-31T00:34:22.449Z,25.47
2023-03-31T00:35:22.500Z,25.45
2023-03-31T00:36:22.467Z,25.45
2023-03-31T00:37:22.484Z,25.47
2023-03-31T00:38:22.509Z,25.44
2023-03-31T00:39:22.536Z,25.39
2023-03-31T00:40:22.554Z,25.39
2023-03-31T00:41:22.543Z,25.38
2023-03-31T00:42:22.572Z,25.44
2023-03-31T00:43:22.662Z,25.38
2023-03-31T00:44:22.671Z,25.36
2023-03-31T00:45:22.758Z,25.36
2023-03-31T00:46:22.828Z,25.44
2023-03-31T00:47:22.769Z,25.38
2023-03-31T00:48:22.938Z,25.37
2023-03-31T00:49:22.778Z,25.35
2023-03-31T00:50:22.800Z,25.35
2023-03-31T00:51:22.810Z,25.35
2023-03-31T00:52:22.814Z,25.33
2023-03-31T00:53:22.853Z,25.33
2023-03-31T00:54:22.881Z,25.33
2023-03-31T00:55:22.854Z,25.33
2023-03-31T00:56:22.936Z,25.31
2023-03-31T00:57:23.021Z,25.23
2023-03-31T00:58:23.003Z,25.26
2023-03-31T00:59:22.978Z,25.29
2023-03-31T01:00:22.983Z,25.25
2023-03-31T01:01:23.054Z,25.23
2023-03-31T01:02:23.167Z,25.26
2023-03-31T01:03:23.052Z,25.25
2023-03-31T01:04:23.101Z,25.25
2023-03-31T01:05:23.071Z,25.26
2023-03-31T01:06:23.080Z,25.20
2023-03-31T01:07:23.085Z,25.23
2023-03-31T01:08:23.115Z,25.22
2023-03-31T01:09:23.131Z,25.25
2023-03-31T01:10:23.190Z,25.14
2023-03-31T01:11:23.199Z,25.16
2023-03-31T01:12:23.223Z,25.11
2023-03-31T01:13:23.195Z,25.20
2023-03-31T01:14:23.215Z,25.16
2023-03-31T01:15:23.245Z,25.17
2023-03-31T01:16:23.314Z,25.12
2023-03-31T01:17:23.501Z,25.11
2023-03-31T01:18:23.377Z,25.16
2023-03-31T01:19:23.321Z,25.16
2023-03-31T01:20:23.339Z,25.14
2023-03-31T01:21:23.413Z,25.11
2023-03-31T01:22:23.368Z,25.17
2023-03-31T01:23:23.388Z,25.03
2023-03-31T01:24:23.381Z,25.11
2023-03-31T01:25:23.400Z,25.11
2023-03-31T01:26:23.417Z,25.14
2023-03-31T01:27:23.434Z,25.12
2023-03-31T01:28:23.452Z,25.04
2023-03-31T01:29:23.453Z,25.01
2023-03-31T01:30:23.462Z,25.06
2023-03-31T01:31:23.509Z,25.04
2023-03-31T01:32:23.544Z,25.03
2023-03-31T01:33:23.520Z,25.06
2023-03-31T01:34:23.557Z,25.03
2023-03-31T01:35:23.596Z,25.03
2023-03-31T01:36:23.601Z,24.95
2023-03-31T01:37:23.597Z,25.00
2023-03-31T01:38:23.614Z,25.04
2023-03-31T01:39:23.661Z,24.99
2023-03-31T01:40:23.674Z,24.95
2023-03-31T01:41:23.702Z,24.97
2023-03-31T01:42:23.727Z,24.95
2023-03-31T01:43:23.729Z,24.98
2023-03-31T01:44:23.758Z,24.91
2023-03-31T01:45:23.820Z,24.92
2023-03-31T01:46:23.795Z,24.97
2023-03-31T01:47:23.884Z,24.95
2023-03-31T01:48:23.839Z,24.93
2023-03-31T01:49:23.848Z,24.91
2023-03-31T01:50:23.870Z,24.93
2023-03-31T01:51:23.888Z,24.92
2023-03-31T01:52:23.991Z,24.92
2023-03-31T01:53:24.032Z,24.86
2023-03-31T01:54:23.931Z,24.87
2023-03-31T01:55:23.990Z,24.82
2023-03-31T01:56:24.024Z,24.84
2023-03-31T01:57:24.135Z,24.92
2023-03-31T01:58:24.014Z,24.82
2023-03-31T01:59:24.037Z,24.89
2023-03-31T02:00:24.054Z,24.78
2023-03-31T02:01:24.098Z,24.81
2023-03-31T02:02:24.166Z,24.79
2023-03-31T02:03:24.282Z,24.82
2023-03-31T02:04:24.194Z,24.78
2023-03-31T02:05:24.200Z,24.81
2023-03-31T02:06:24.219Z,24.81
2023-03-31T02:07:24.212Z,24.76
2023-03-31T02:08:24.253Z,24.70
2023-03-31T02:09:24.261Z,24.70
2023-03-31T02:10:24.297Z,24.76
2023-03-31T02:11:24.351Z,24.71
2023-03-31T02:12:24.347Z,24.67
2023-03-31T02:13:24.355Z,24.70
2023-03-31T02:14:24.366Z,24.70
2023-03-31T02:15:24.411Z,24.72
2023-03-31T02:16:24.643Z,24.64
2023-03-31T02:17:24.449Z,24.69
2023-03-31T02:18:24.475Z,24.67
2023-03-31T02:19:24.484Z,24.68
2023-03-31T02:20:24.511Z,24.63
2023-03-31T02:21:24.531Z,24.58
2023-03-31T02:22:24.564Z,24.61
2023-03-31T02:23:24.586Z,24.60
2023-03-31T02:24:24.573Z,24.58
2023-03-31T02:25:24.621Z,24.60
2023-03-31T02:26:24.685Z,24.61
2023-03-31T02:27:24.663Z,24.55
2023-03-31T02:28:24.669Z,24.58
2023-03-31T02:29:24.689Z,24.58
2023-03-31T02:30:24.727Z,24.58
2023-03-31T02:31:24.737Z,24.57
2023-03-31T02:32:24.781Z,24.57
2023-03-31T02:33:24.792Z,24.60
2023-03-31T02:34:24.818Z,24.57
2023-03-31T02:35:24.876Z,24.54
2023-03-31T02:36:24.874Z,24.51
2023-03-31T02:37:24.884Z,24.53
2023-03-31T02:38:24.890Z,24.52
2023-03-31T02:39:24.924Z,24.51
2023-03-31T02:40:24.938Z,24.51
2023-03-31T02:41:24.950Z,24.52
2023-03-31T02:42:24.977Z,24.49
2023-03-31T02:43:25.015Z,24.52
2023-03-31T02:44:25.075Z,24.45
2023-03-31T02:45:25.050Z,24.46
2023-03-31T02:46:25.089Z,24.45
2023-03-31T02:47:25.121Z,24.49
2023-03-31T02:48:25.086Z,24.49
2023-03-31T02:49:25.103Z,24.45
2023-03-31T02:50:25.120Z,24.45
2023-03-31T02:51:25.137Z,24.45
2023-03-31T02:52:25.151Z,24.41
2023-03-31T02:53:25.221Z,24.42
2023-03-31T02:54:26.228Z,24.44
2023-03-31T02:55:25.236Z,24.38
2023-03-31T02:56:25.268Z,24.35
2023-03-31T02:57:25.347Z,24.41
2023-03-31T02:58:25.299Z,24.44
2023-03-31T02:59:25.343Z,24.38
2023-03-31T03:00:25.334Z,24.42
2023-03-31T03:01:25.379Z,24.35
2023-03-31T03:02:25.434Z,24.35
2023-03-31T03:03:25.418Z,24.39
2023-03-31T03:04:25.395Z,24.33
2023-03-31T03:05:25.438Z,24.33
2023-03-31T03:06:25.453Z,24.35
2023-03-31T03:07:25.492Z,24.33
2023-03-31T03:08:25.736Z,24.33
2023-03-31T03:09:25.503Z,24.35
2023-03-31T03:10:25.545Z,24.38
2023-03-31T03:11:25.540Z,24.33
2023-03-31T03:12:25.581Z,24.30
2023-03-31T03:13:25.610Z,24.38
2023-03-31T03:14:25.610Z,24.32
2023-03-31T03:15:25.649Z,24.33
2023-03-31T03:16:25.660Z,24.33
2023-03-31T03:17:25.734Z,24.32
2023-03-31T03:18:25.701Z,24.30
2023-03-31T03:19:25.733Z,24.30
2023-03-31T03:20:25.737Z,24.30
2023-03-31T03:21:25.762Z,24.26
2023-03-31T03:22:25.777Z,24.29
2023-03-31T03:23:25.817Z,24.26
2023-03-31T03:24:25.814Z,24.29
2023-03-31T03:25:25.854Z,24.26
2023-03-31T03:26:25.872Z,24.23
2023-03-31T03:27:25.900Z,24.24
2023-03-31T03:28:25.893Z,24.26
2023-03-31T03:29:25.936Z,24.27
2023-03-31T03:30:25.953Z,24.21
2023-03-31T03:31:26.430Z,24.23
2023-03-31T03:32:25.995Z,24.22
2023-03-31T03:33:26.012Z,24.19
2023-03-31T03:34:26.028Z,24.20
2023-03-31T03:35:26.208Z,24.18
2023-03-31T03:36:26.119Z,24.17
2023-03-31T03:37:26.104Z,24.22
2023-03-31T03:38:26.110Z,24.20
2023-03-31T03:39:26.167Z,24.18
2023-03-31T03:40:26.146Z,24.17
2023-03-31T03:41:26.184Z,24.18
2023-03-31T03:42:26.226Z,24.17
2023-03-31T03:43:26.243Z,24.16
2023-03-31T03:44:26.250Z,24.20
2023-03-31T03:45:26.278Z,24.17
2023-03-31T03:46:26.322Z,24.18
2023-03-31T03:47:26.387Z,24.16
2023-03-31T03:48:26.372Z,24.17
2023-03-31T03:49:26.400Z,24.16
2023-03-31T03:50:26.397Z,24.14
2023-03-31T03:51:26.423Z,24.17
2023-03-31T03:52:26.448Z,24.18
2023-03-31T03:53:26.462Z,24.13
2023-03-31T03:54:26.461Z,24.14
2023-03-31T03:55:26.476Z,24.16
2023-03-31T03:56:26.512Z,24.16
2023-03-31T03:57:26.854Z,24.08
2023-03-31T03:58:26.552Z,24.07
2023-03-31T03:59:26.558Z,24.10
2023-03-31T04:00:26.576Z,24.14
2023-03-31T04:01:26.572Z,24.07
2023-03-31T04:02:28.076Z,24.11
2023-03-31T04:03:26.689Z,24.11
2023-03-31T04:04:26.632Z,24.05
2023-03-31T04:05:26.745Z,24.14
2023-03-31T04:06:26.664Z,24.14
2023-03-31T04:07:26.705Z,24.05
2023-03-31T04:08:26.707Z,24.07
2023-03-31T04:09:26.721Z,24.08
2023-03-31T04:10:26.750Z,24.06
2023-03-31T04:11:26.758Z,24.08
2023-03-31T04:12:26.799Z,24.07
2023-03-31T04:13:26.820Z,24.07
2023-03-31T04:14:26.879Z,24.07
2023-03-31T04:15:26.851Z,24.02
2023-03-31T04:16:26.934Z,24.10
2023-03-31T04:17:26.938Z,24.11
2023-03-31T04:18:26.930Z,24.05
2023-03-31T04:19:26.945Z,24.08
2023-03-31T04:20:26.973Z,24.11
2023-03-31T04:21:26.968Z,24.07
2023-03-31T04:22:27.021Z,24.10
2023-03-31T04:23:27.001Z,24.02
2023-03-31T04:24:27.034Z,24.10
2023-03-31T04:25:27.063Z,24.05
2023-03-31T04:26:27.092Z,24.08
2023-03-31T04:27:27.196Z,24.05
2023-03-31T04:28:27.187Z,24.07
2023-03-31T04:29:27.161Z,24.10
2023-03-31T04:30:27.190Z,24.05
2023-03-31T04:31:27.213Z,24.05
2023-03-31T04:32:27.228Z,24.08
2023-03-31T04:33:27.222Z,24.05
2023-03-31T04:34:27.388Z,24.05
2023-03-31T04:35:27.332Z,24.05
2023-03-31T04:36:27.315Z,24.04
2023-03-31T04:37:27.318Z,24.05
2023-03-31T04:38:27.410Z,24.07
2023-03-31T04:39:27.348Z,24.02
2023-03-31T04:40:27.389Z,24.02
2023-03-31T04:41:27.409Z,24.02
2023-03-31T04:42:27.462Z,24.05
2023-03-31T04:43:27.455Z,24.08
2023-03-31T04:44:27.522Z,24.01
2023-03-31T04:45:27.546Z,24.08
2023-03-31T04:46:27.530Z,23.99
2023-03-31T04:47:27.558Z,24.05
2023-03-31T04:48:27.555Z,23.99
2023-03-31T04:49:27.572Z,24.04
2023-03-31T04:50:27.597Z,24.01
2023-03-31T04:51:27.624Z,24.04
2023-03-31T04:52:27.644Z,24.02
2023-03-31T04:53:27.650Z,24.02
2023-03-31T04:54:27.722Z,24.02
2023-03-31T04:55:27.733Z,24.02
2023-03-31T04:56:27.753Z,24.05
2023-03-31T04:57:27.861Z,24.04
2023-03-31T04:58:27.793Z,24.04
2023-03-31T04:59:27.792Z,24.08
2023-03-31T05:00:27.809Z,24.02
2023-03-31T05:01:27.899Z,24.01
2023-03-31T05:02:27.918Z,24.02
2023-03-31T05:03:28.010Z,24.05
2023-03-31T05:04:27.908Z,24.01
2023-03-31T05:05:27.914Z,24.04
2023-03-31T05:06:27.950Z,24.01
2023-03-31T05:07:27.975Z,23.98
2023-03-31T05:08:27.987Z,24.05
2023-03-31T05:09:28.023Z,23.99
2023-03-31T05:10:28.037Z,24.02
2023-03-31T05:11:28.081Z,23.98
2023-03-31T05:12:28.084Z,24.04
2023-03-31T05:13:28.100Z,24.01
2023-03-31T05:14:28.124Z,23.98
2023-03-31T05:15:28.143Z,23.99
2023-03-31T05:16:28.239Z,23.96
2023-03-31T05:17:28.268Z,24.02
2023-03-31T05:18:28.193Z,23.99
2023-03-31T05:19:28.225Z,23.99
2023-03-31T05:20:28.249Z,23.98
2023-03-31T05:21:28.259Z,24.02
2023-03-31T05:22:28.331Z,24.02
2023-03-31T05:23:28.335Z,23.95
2023-03-31T05:24:28.411Z,23.97
2023-03-31T05:25:28.344Z,23.98
2023-03-31T05:26:28.382Z,24.20
2023-03-31T05:27:28.525Z,24.46
2023-03-31T05:28:29.505Z,24.70
2023-03-31T05:29:28.445Z,24.69
2023-03-31T05:30:28.440Z,25.13
2023-03-31T05:31:28.522Z,25.27
2023-03-31T05:32:28.543Z,25.10
2023-03-31T05:33:28.529Z,25.17
2023-03-31T05:34:28.584Z,25.50
2023-03-31T05:35:28.608Z,25.63
2023-03-31T05:36:28.593Z,25.58
2023-03-31T05:37:28.645Z,26.07
2023-03-31T05:38:28.661Z,25.98
2023-03-31T05:39:28.719Z,26.17
2023-03-31T05:40:28.697Z,26.29
2023-03-31T05:41:28.745Z,26.46
2023-03-31T05:42:28.689Z,26.19
2023-03-31T05:43:28.792Z,26.25
2023-03-31T05:44:28.726Z,26.26
2023-03-31T05:45:28.722Z,26.18
2023-03-31T05:46:28.860Z,26.01
2023-03-31T05:47:28.749Z,26.01
2023-03-31T05:48:28.693Z,26.00
2023-03-31T05:49:28.746Z,26.30
2023-03-31T05:50:28.692Z,26.17
2023-03-31T05:51:28.713Z,26.26
2023-03-31T05:52:28.692Z,26.23
2023-03-31T05:53:28.664Z,26.41
2023-03-31T05:54:28.688Z,26.34
2023-03-31T05:55:28.694Z,26.35
2023-03-31T05:56:28.701Z,26.39
2023-03-31T05:57:28.746Z,26.25
2023-03-31T05:58:28.896Z,26.01
2023-03-31T05:59:28.699Z,25.82
2023-03-31T06:00:28.701Z,25.82
2023-03-31T06:01:28.715Z,26.03
2023-03-31T06:02:28.754Z,26.15
2023-03-31T06:03:28.768Z,26.18
2023-03-31T06:04:28.698Z,26.19
2023-03-31T06:05:28.674Z,26.27
2023-03-31T06:06:28.714Z,26.33
2023-03-31T06:07:28.750Z,26.37
2023-03-31T06:08:28.761Z,26.40
2023-03-31T06:09:28.761Z,26.37
2023-03-31T06:10:28.851Z,26.37
2023-03-31T06:11:28.887Z,26.31
2023-03-31T06:12:28.874Z,26.24
2023-03-31T06:13:30.852Z,26.03
2023-03-31T06:14:28.967Z,25.83
2023-03-31T06:15:29.035Z,25.90
2023-03-31T06:16:29.867Z,25.68
2023-03-31T06:17:29.090Z,25.64
2023-03-31T06:18:29.085Z,25.71
2023-03-31T06:19:29.265Z,25.84
2023-03-31T06:20:29.143Z,26.15
2023-03-31T06:21:29.351Z,26.08
2023-03-31T06:22:29.355Z,26.09
2023-03-31T06:23:29.325Z,25.82
2023-03-31T06:24:29.328Z,26.08
2023-03-31T06:25:37.196Z,26.22
2023-03-31T06:26:30.386Z,26.28
2023-03-31T06:27:29.420Z,26.26
2023-03-31T06:28:29.886Z,26.29
2023-03-31T06:29:29.413Z,26.32
2023-03-31T06:30:29.378Z,26.39
2023-03-31T06:31:29.574Z,26.47
2023-03-31T06:32:29.358Z,26.06
2023-03-31T06:33:30.046Z,26.10
2023-03-31T06:34:29.469Z,26.06
2023-03-31T06:35:29.538Z,26.07
2023-03-31T06:36:30.353Z,25.96
2023-03-31T06:37:29.618Z,25.94
2023-03-31T06:38:30.905Z,26.03
2023-03-31T06:39:29.757Z,26.02
2023-03-31T06:40:29.738Z,25.82
2023-03-31T06:41:29.783Z,25.87
2023-03-31T06:42:29.830Z,25.80
2023-03-31T06:43:29.777Z,25.87
2023-03-31T06:44:29.804Z,26.64
2023-03-31T06:45:30.048Z,26.35
2023-03-31T06:46:29.877Z,26.16
2023-03-31T06:47:29.852Z,26.17
2023-03-31T06:48:29.863Z,26.54
2023-03-31T06:49:29.907Z,26.52
2023-03-31T06:50:29.996Z,26.45
2023-03-31T06:51:32.145Z,26.52
2023-03-31T06:52:29.953Z,26.59
2023-03-31T06:53:30.344Z,26.78
2023-03-31T06:54:29.899Z,26.72
2023-03-31T06:55:29.926Z,26.68
2023-03-31T06:56:29.970Z,26.52
2023-03-31T06:57:30.069Z,26.57
2023-03-31T06:58:31.542Z,26.52
2023-03-31T06:59:29.928Z,26.56
2023-03-31T07:00:29.884Z,26.66
2023-03-31T07:01:29.884Z,26.74
2023-03-31T07:02:29.950Z,26.81
2023-03-31T07:03:30.874Z,26.98
2023-03-31T07:04:29.984Z,27.04
2023-03-31T07:05:29.954Z,27.09
2023-03-31T07:06:29.849Z,27.03
2023-03-31T07:07:29.855Z,26.98
2023-03-31T07:08:29.927Z,27.00
2023-03-31T07:09:29.874Z,27.03
2023-03-31T07:10:29.823Z,26.98
2023-03-31T07:11:30.189Z,26.92
2023-03-31T07:12:29.949Z,26.91
2023-03-31T07:13:30.173Z,26.94
2023-03-31T07:14:30.323Z,26.95
2023-03-31T07:15:30.116Z,26.90
2023-03-31T07:16:30.189Z,26.99
2023-03-31T07:17:30.254Z,26.96
2023-03-31T07:18:32.724Z,27.00
2023-03-31T07:19:30.312Z,26.93
2023-03-31T07:20:30.250Z,26.96
2023-03-31T07:21:30.198Z,27.05
2023-03-31T07:22:30.249Z,27.08
2023-03-31T07:23:30.198Z,27.14
2023-03-31T07:24:30.201Z,27.16
2023-03-31T07:25:30.196Z,27.11
2023-03-31T07:26:30.215Z,27.27
2023-03-31T07:27:30.262Z,26.94
2023-03-31T07:28:30.175Z,27.15
2023-03-31T07:29:30.245Z,27.02
2023-03-31T07:30:30.220Z,27.06
2023-03-31T07:31:30.191Z,27.54
2023-03-31T07:32:30.178Z,27.40
2023-03-31T07:33:30.326Z,27.51
2023-03-31T07:34:30.121Z,27.55
2023-03-31T07:35:31.075Z,27.44
2023-03-31T07:36:30.872Z,27.48
2023-03-31T07:37:30.139Z,27.49
2023-03-31T07:38:30.352Z,28.49
2023-03-31T07:39:30.824Z,28.61
2023-03-31T07:40:30.435Z,28.67
2023-03-31T07:41:30.112Z,28.26
2023-03-31T07:42:30.116Z,28.11
2023-03-31T07:43:30.980Z,28.43
2023-03-31T07:44:30.068Z,28.31
2023-03-31T07:45:30.400Z,28.18
2023-03-31T07:46:30.127Z,28.89
2023-03-31T07:47:30.087Z,28.39
2023-03-31T07:48:30.036Z,28.18
2023-03-31T07:49:30.018Z,28.15
2023-03-31T07:50:30.036Z,29.19
2023-03-31T07:51:29.999Z,29.02
2023-03-31T07:52:29.996Z,28.63
2023-03-31T07:53:29.983Z,28.47
2023-03-31T07:54:30.724Z,29.28
2023-03-31T07:55:30.050Z,29.56
2023-03-31T07:56:29.965Z,28.93
2023-03-31T07:57:30.047Z,29.12
2023-03-31T07:58:30.012Z,28.77
2023-03-31T07:59:29.978Z,28.53
2023-03-31T08:00:29.969Z,28.96
2023-03-31T08:01:29.997Z,28.90
2023-03-31T08:02:30.183Z,28.52
2023-03-31T08:03:29.970Z,28.24
2023-03-31T08:04:30.125Z,28.23
2023-03-31T08:05:30.034Z,29.47
2023-03-31T08:06:30.095Z,29.48
2023-03-31T08:07:30.077Z,28.97
2023-03-31T08:08:30.170Z,28.93
2023-03-31T08:09:30.408Z,28.51
2023-03-31T08:10:30.186Z,28.66
2023-03-31T08:11:30.167Z,28.46
2023-03-31T08:12:30.207Z,28.91
2023-03-31T08:13:30.285Z,28.99
2023-03-31T08:14:40.672Z,28.85
2023-03-31T08:15:31.251Z,29.07
2023-03-31T08:16:30.465Z,29.36
2023-03-31T08:17:30.233Z,29.76
2023-03-31T08:18:30.225Z,29.68
2023-03-31T08:19:30.244Z,29.64
2023-03-31T08:20:30.234Z,29.45
2023-03-31T08:21:30.361Z,29.42
2023-03-31T08:22:30.168Z,29.38
2023-03-31T08:23:30.246Z,29.36
2023-03-31T08:24:30.243Z,29.47
2023-03-31T08:25:30.180Z,29.47
2023-03-31T08:26:31.019Z,29.66
2023-03-31T08:27:30.139Z,29.43
2023-03-31T08:28:30.132Z,29.22
2023-03-31T08:29:30.130Z,29.24
2023-03-31T08:30:30.106Z,29.04
2023-03-31T08:31:30.149Z,28.97
2023-03-31T08:32:30.112Z,28.80
2023-03-31T08:33:30.099Z,28.46
2023-03-31T08:34:30.093Z,28.49
2023-03-31T08:35:30.181Z,28.39
2023-03-31T08:36:30.116Z,28.49
2023-03-31T08:37:30.863Z,28.61
2023-03-31T08:38:30.166Z,28.75
2023-03-31T08:39:30.330Z,28.74
2023-03-31T08:40:30.427Z,29.57
2023-03-31T08:41:30.286Z,29.09
2023-03-31T08:42:30.942Z,29.02
2023-03-31T08:43:30.408Z,29.16
2023-03-31T08:44:30.550Z,29.16
2023-03-31T08:45:30.582Z,29.41
2023-03-31T08:46:30.667Z,29.40
2023-03-31T08:47:30.670Z,29.50
2023-03-31T08:48:30.664Z,29.34
2023-03-31T08:49:30.657Z,29.46
2023-03-31T08:50:30.710Z,29.34
2023-03-31T08:51:30.852Z,29.39
2023-03-31T08:52:30.840Z,29.28
2023-03-31T08:53:31.429Z,29.24
2023-03-31T08:54:30.856Z,29.24
2023-03-31T08:55:30.878Z,29.24
2023-03-31T08:56:30.852Z,29.18
2023-03-31T08:57:30.911Z,29.15
2023-03-31T08:58:30.934Z,29.16
2023-03-31T08:59:31.416Z,29.15
2023-03-31T09:00:30.978Z,29.17
2023-03-31T09:02:31.288Z,29.12
2023-03-31T09:03:31.063Z,29.08
2023-03-31T09:04:31.041Z,29.14
2023-03-31T09:05:31.020Z,29.18
2023-03-31T09:06:31.076Z,29.21
2023-03-31T09:07:31.058Z,29.23
2023-03-31T09:08:31.076Z,29.10
2023-03-31T09:09:31.451Z,29.11
2023-03-31T09:10:31.479Z,29.08
2023-03-31T09:11:31.128Z,29.06
2023-03-31T09:12:31.371Z,29.01
2023-03-31T09:13:31.107Z,29.05
2023-03-31T09:14:31.130Z,29.08
2023-03-31T09:15:31.123Z,28.97
2023-03-31T09:16:31.138Z,29.00
2023-03-31T09:17:31.111Z,29.00
2023-03-31T09:18:31.119Z,29.00
2023-03-31T09:19:31.158Z,29.01
2023-03-31T09:20:31.096Z,29.09
2023-03-31T09:21:31.128Z,29.04
2023-03-31T09:22:31.117Z,28.98
2023-03-31T09:23:31.170Z,29.07
2023-03-31T09:24:32.719Z,29.07
2023-03-31T09:25:32.894Z,29.06
2023-03-31T09:26:31.200Z,28.82
2023-03-31T09:27:31.111Z,29.01
2023-03-31T09:28:31.120Z,28.92
2023-03-31T09:29:31.116Z,28.95
2023-03-31T09:30:31.468Z,28.94
2023-03-31T09:31:31.106Z,29.20
2023-03-31T09:32:31.095Z,29.26
2023-03-31T09:33:31.898Z,29.36
2023-03-31T09:34:31.932Z,29.20
2023-03-31T09:35:31.120Z,29.21
2023-03-31T09:36:31.136Z,29.13
2023-03-31T09:37:31.092Z,28.92
2023-03-31T09:38:31.292Z,28.96
2023-03-31T09:39:31.095Z,28.50
2023-03-31T09:40:31.523Z,27.99
2023-03-31T09:41:33.029Z,27.91
2023-03-31T09:42:31.078Z,27.54
2023-03-31T09:43:31.055Z,27.36
2023-03-31T09:44:31.088Z,27.27
2023-03-31T09:45:31.247Z,27.12
2023-03-31T09:46:31.113Z,27.05
2023-03-31T09:47:31.106Z,27.03
2023-03-31T09:48:31.028Z,26.91
2023-03-31T09:49:31.066Z,26.90
2023-03-31T09:50:31.062Z,26.90
2023-03-31T09:51:31.051Z,27.02
2023-03-31T09:52:31.041Z,27.09
2023-03-31T09:53:31.039Z,27.19
2023-03-31T09:54:31.515Z,27.30
2023-03-31T09:55:39.590Z,27.38
2023-03-31T09:56:31.972Z,27.45
2023-03-31T09:57:32.928Z,27.49
2023-03-31T09:58:31.223Z,27.45
2023-03-31T09:59:31.323Z,27.55
2023-03-31T10:00:31.293Z,27.57
2023-03-31T10:01:31.355Z,27.55
2023-03-31T10:02:31.347Z,27.61
2023-03-31T10:03:31.386Z,27.57
2023-03-31T10:04:31.562Z,27.65
2023-03-31T10:05:31.420Z,27.70
2023-03-31T10:06:31.437Z,27.68
2023-03-31T10:07:31.482Z,27.64
2023-03-31T10:08:31.452Z,27.52
2023-03-31T10:09:32.458Z,27.66
2023-03-31T10:10:32.394Z,27.52
2023-03-31T10:11:31.600Z,27.52
2023-03-31T10:12:31.545Z,27.49
2023-03-31T10:13:31.594Z,27.47
2023-03-31T10:14:31.667Z,27.49
2023-03-31T10:15:31.676Z,27.40
2023-03-31T10:16:31.696Z,27.41
2023-03-31T10:17:38.012Z,27.40
2023-03-31T10:18:32.699Z,27.34
2023-03-31T10:19:31.700Z,27.39
2023-03-31T10:20:34.909Z,27.32
2023-03-31T10:21:31.742Z,27.37
2023-03-31T10:22:31.663Z,27.51
2023-03-31T10:23:31.664Z,27.47
2023-03-31T10:24:31.617Z,27.65
2023-03-31T10:25:31.624Z,28.02
2023-03-31T10:26:31.693Z,28.11
2023-03-31T10:27:31.607Z,28.20
2023-03-31T10:28:31.636Z,28.35
2023-03-31T10:29:31.580Z,28.41
2023-03-31T10:30:31.895Z,28.38
2023-03-31T10:31:31.619Z,28.50
2023-03-31T10:32:31.784Z,28.58
2023-03-31T10:33:31.631Z,28.62
2023-03-31T10:34:31.583Z,28.65
2023-03-31T10:35:31.609Z,28.90
2023-03-31T10:36:31.552Z,28.95
2023-03-31T10:37:31.544Z,29.06
2023-03-31T10:38:31.573Z,29.20
2023-03-31T10:39:31.563Z,29.23
2023-03-31T10:40:32.516Z,29.35
2023-03-31T10:41:32.471Z,29.42
2023-03-31T10:42:31.523Z,29.58
2023-03-31T10:43:31.539Z,29.58
2023-03-31T10:44:31.524Z,29.63
2023-03-31T10:45:37.293Z,29.64
2023-03-31T10:46:32.515Z,29.75
2023-03-31T10:47:31.559Z,29.72
2023-03-31T10:48:31.524Z,29.78
2023-03-31T10:49:31.489Z,29.81
2023-03-31T10:50:32.411Z,29.81
2023-03-31T10:51:31.564Z,29.87
2023-03-31T10:52:31.547Z,29.90
2023-03-31T10:53:31.466Z,29.93
2023-03-31T10:54:31.490Z,29.99
2023-03-31T10:55:31.934Z,29.99
2023-03-31T10:56:31.474Z,30.07
2023-03-31T10:57:31.954Z,30.10
2023-03-31T10:58:31.494Z,30.12
2023-03-31T10:59:31.497Z,30.19
2023-03-31T11:00:31.917Z,30.18
2023-03-31T11:01:31.411Z,30.21
2023-03-31T11:02:31.530Z,30.24
2023-03-31T11:03:31.520Z,30.24
2023-03-31T11:04:31.387Z,30.25
2023-03-31T11:05:31.928Z,30.34
2023-03-31T11:06:31.474Z,30.35
2023-03-31T11:07:31.384Z,30.28
2023-03-31T11:08:31.372Z,30.27
2023-03-31T11:09:31.321Z,30.52
2023-03-31T11:10:31.337Z,30.68
2023-03-31T11:11:31.534Z,30.64
2023-03-31T11:12:31.455Z,30.47
2023-03-31T11:13:31.318Z,30.34
2023-03-31T11:14:31.901Z,30.24
2023-03-31T11:15:31.271Z,30.10
2023-03-31T11:16:31.398Z,29.90
2023-03-31T11:17:31.271Z,29.67
2023-03-31T11:18:31.344Z,29.45
2023-03-31T11:19:31.244Z,29.47
2023-03-31T11:20:31.255Z,30.98
2023-03-31T11:21:31.292Z,30.72
2023-03-31T11:22:31.334Z,30.85
2023-03-31T11:23:31.378Z,30.82
2023-03-31T11:24:31.418Z,31.08
2023-03-31T11:25:31.537Z,30.37
2023-03-31T11:26:31.509Z,30.35
2023-03-31T11:27:31.491Z,30.25
2023-03-31T11:28:31.489Z,29.89
2023-03-31T11:29:31.570Z,29.93
2023-03-31T11:30:31.505Z,29.98
2023-03-31T11:31:31.982Z,29.76
2023-03-31T11:32:31.853Z,29.86
2023-03-31T11:33:31.595Z,29.86
2023-03-31T11:34:31.658Z,29.73
2023-03-31T11:35:31.651Z,29.73
2023-03-31T11:36:31.677Z,29.77
2023-03-31T11:37:31.762Z,29.80
2023-03-31T11:38:31.718Z,29.77
2023-03-31T11:39:31.888Z,29.77
2023-03-31T11:40:31.836Z,29.81
2023-03-31T11:41:31.880Z,29.74
2023-03-31T11:42:31.900Z,29.68
2023-03-31T11:43:31.880Z,29.79
2023-03-31T11:44:31.899Z,29.76
2023-03-31T11:45:31.897Z,29.82
2023-03-31T11:46:31.943Z,29.79
2023-03-31T11:47:32.038Z,29.72
2023-03-31T11:48:31.974Z,29.82
2023-03-31T11:49:31.964Z,29.76
2023-03-31T11:50:31.976Z,29.64
2023-03-31T11:51:32.006Z,29.73
2023-03-31T11:52:32.039Z,29.70
2023-03-31T11:53:32.101Z,29.66
2023-03-31T11:54:32.066Z,29.61
2023-03-31T11:55:32.105Z,29.60
2023-03-31T11:56:32.109Z,29.60
2023-03-31T11:57:32.199Z,29.57
2023-03-31T11:58:32.159Z,29.60
2023-03-31T11:59:32.167Z,29.54
2023-03-31T12:00:32.201Z,29.48
2023-03-31T12:01:32.461Z,29.60
2023-03-31T12:02:32.297Z,29.52
2023-03-31T12:03:32.269Z,29.48
2023-03-31T12:04:32.284Z,29.51
2023-03-31T12:05:32.450Z,29.49
2023-03-31T12:06:32.330Z,29.44
2023-03-31T12:07:32.386Z,29.48
2023-03-31T12:08:32.354Z,29.37
2023-03-31T12:09:32.479Z,29.36
2023-03-31T12:10:32.438Z,29.30
2023-03-31T12:11:32.418Z,29.34
2023-03-31T12:12:32.472Z,29.27
2023-03-31T12:13:32.443Z,29.31
2023-03-31T12:14:32.521Z,29.34
2023-03-31T12:15:32.499Z,29.21
2023-03-31T12:16:32.637Z,29.24
2023-03-31T12:17:32.602Z,29.28
2023-03-31T12:18:32.587Z,29.26
2023-03-31T12:19:32.623Z,29.22
2023-03-31T12:20:32.672Z,29.18
2023-03-31T12:21:32.646Z,29.12
2023-03-31T12:22:32.708Z,29.13
2023-03-31T12:23:32.697Z,29.10
2023-03-31T12:24:32.744Z,29.06
2023-03-31T12:25:32.728Z,29.03
2023-03-31T12:26:32.725Z,29.09
2023-03-31T12:27:32.701Z,29.05
2023-03-31T12:28:32.810Z,29.01
2023-03-31T12:29:32.729Z,28.98
2023-03-31T12:30:32.735Z,29.01
2023-03-31T12:31:32.765Z,28.94
2023-03-31T12:32:32.697Z,28.97
2023-03-31T12:33:32.670Z,28.94
2023-03-31T12:34:32.669Z,28.91
2023-03-31T12:35:32.724Z,28.86
2023-03-31T12:36:32.656Z,28.86
2023-03-31T12:37:32.715Z,28.89
2023-03-31T12:38:32.627Z,28.85
2023-03-31T12:39:32.624Z,28.83
2023-03-31T12:40:32.622Z,28.85
2023-03-31T12:41:32.612Z,28.82
2023-03-31T12:42:32.654Z,28.79
2023-03-31T12:43:32.658Z,28.73
2023-03-31T12:44:32.683Z,28.76
2023-03-31T12:45:32.722Z,28.79
2023-03-31T12:46:32.784Z,28.76
2023-03-31T12:47:32.827Z,28.70
2023-03-31T12:48:32.872Z,28.71
2023-03-31T12:49:32.842Z,28.65
2023-03-31T12:50:32.925Z,28.68
2023-03-31T12:51:32.944Z,28.70
2023-03-31T12:52:32.944Z,28.62
2023-03-31T12:53:32.984Z,28.68